Time;durP1;ratioP1;P1;durP2;ratioP2;P2;SDS_P1;SDS_P2;PMS_P1;PMS_P2;Temp;Humidity;BMP_temperature;BMP_pressure;BME280_temperature;BME280_humidity;BME280_pressure;Samples;Min_cycle;Max_cycle;Signal;HPM_P1;HPM_P2
2023/05/03 05:09:39;;;;;;;3.47;2.83;;;;;;;;;;5090893;28;20549;-75
2023/05/03 05:17:52;;;;;;;4.70;3.67;;;4.00;99.90;;;;;;5137890;27;20558;-75
2023/05/03 05:26:38;;;;;;;4.33;3.93;;;;;;;;;;5132172;27;20749;-75
2023/05/03 05:33:16;;;;;;;3.67;3.33;;;4.30;99.90;;;;;;5132635;27;20263;-76
2023/05/03 05:40:03;;;;;;;6.53;4.70;;;;;;;;;;5130410;27;20275;-75
2023/05/03 05:46:49;;;;;;;6.13;4.93;;;5.00;99.90;;;;;;5132415;27;20288;-76
2023/05/03 05:52:11;;;;;;;8.13;5.20;;;5.00;99.90;;;;;;5132269;27;20279;-75
2023/05/03 05:58:14;;;;;;;8.33;6.53;;;;;;;;;;5007478;28;20641;-75
2023/05/03 06:03:58;;;;;;;11.60;7.40;;;;;;;;;;5071344;27;20558;-75
2023/05/03 06:08:30;;;;;;;15.03;7.83;;;6.00;99.90;;;;;;5131718;27;20306;-76
2023/05/03 06:13:28;;;;;;;11.47;7.53;;;;;;;;;;5111136;27;20551;-76
2023/05/03 06:18:17;;;;;;;9.73;7.13;;;6.60;99.90;;;;;;5132222;27;20639;-76
2023/05/03 06:22:44;;;;;;;9.33;7.27;;;7.00;99.90;;;;;;5132300;27;20756;-76
2023/05/03 06:26:22;;;;;;;8.00;7.00;;;7.40;99.90;;;;;;5131857;27;20341;-76
2023/05/03 06:31:23;;;;;;;10.53;6.40;;;7.60;99.90;;;;;;5131740;27;20746;-76
2023/05/03 06:33:48;;;;;;;7.67;6.60;;;7.60;99.90;;;;;;5131741;28;20178;-76
2023/05/03 06:36:14;;;;;;;7.77;6.57;;;7.90;99.90;;;;;;5131741;28;20624;-76
2023/05/03 06:38:40;;;;;;;6.40;5.70;;;7.80;99.90;;;;;;5132188;27;20749;-75
2023/05/03 06:41:17;;;;;;;9.40;6.33;;;8.00;99.90;;;;;;5131576;27;20295;-76
2023/05/03 06:43:43;;;;;;;7.10;5.43;;;8.20;99.90;;;;;;5131712;28;20454;-76
2023/05/03 06:46:09;;;;;;;6.60;5.80;;;8.40;99.90;;;;;;5131729;28;20477;-76
2023/05/03 06:48:35;;;;;;;5.30;4.80;;;8.50;99.90;;;;;;5131532;28;20191;-76
2023/05/03 06:51:01;;;;;;;6.83;5.40;;;8.30;99.90;;;;;;5131284;27;20172;-76
2023/05/03 06:53:27;;;;;;;7.20;4.80;;;8.30;99.90;;;;;;5131316;27;20628;-76
2023/05/03 06:55:53;;;;;;;8.87;5.23;;;8.30;99.90;;;;;;5130143;28;20541;-76
2023/05/03 06:58:18;;;;;;;8.33;5.47;;;8.20;99.90;;;;;;5131260;27;20194;-76
2023/05/03 07:00:45;;;;;;;13.33;6.00;;;8.20;99.90;;;;;;5131153;27;20307;-76
2023/05/03 07:03:11;;;;;;;8.43;6.10;;;8.00;99.90;;;;;;5131328;27;20655;-76
2023/05/03 07:05:36;;;;;;;7.63;5.63;;;8.00;99.90;;;;;;5131323;27;20257;-76
2023/05/03 07:08:02;;;;;;;10.80;7.47;;;8.00;99.90;;;;;;5129975;28;20195;-76
2023/05/03 07:10:29;;;;;;;9.10;7.30;;;8.00;99.90;;;;;;5129719;28;20185;-76
2023/05/03 07:12:56;;;;;;;16.13;7.53;;;8.10;99.90;;;;;;5131151;27;20175;-76
2023/05/03 07:15:21;;;;;;;14.83;7.13;;;8.10;99.90;;;;;;5131128;27;20256;-76
2023/05/03 07:17:47;;;;;;;11.77;6.97;;;8.00;99.90;;;;;;5130900;27;20213;-76
2023/05/03 07:20:13;;;;;;;9.57;6.53;;;8.00;99.90;;;;;;5130827;27;20227;-76
2023/05/03 07:22:38;;;;;;;9.40;7.13;;;8.10;99.90;;;;;;5129856;28;20179;-77
2023/05/03 07:25:04;;;;;;;13.33;7.33;;;8.10;99.90;;;;;;5129755;28;20241;-77
2023/05/03 07:27:30;;;;;;;10.33;7.47;;;8.20;99.90;;;;;;5131152;27;20233;-77
2023/05/03 07:29:56;;;;;;;9.47;7.33;;;8.10;99.90;;;;;;5129585;28;20182;-77
2023/05/03 07:32:21;;;;;;;9.43;7.47;;;8.20;99.90;;;;;;5131087;27;20618;-77
2023/05/03 07:34:47;;;;;;;11.10;7.63;;;8.30;99.90;;;;;;5129427;28;20225;-77
2023/05/03 07:37:13;;;;;;;13.23;7.83;;;8.40;99.90;;;;;;5130746;27;20685;-77
2023/05/03 07:39:40;;;;;;;12.97;8.00;;;8.40;99.90;;;;;;5130499;27;20198;-78
2023/05/03 07:42:06;;;;;;;10.77;8.17;;;8.60;99.90;;;;;;5130700;27;20183;-77
2023/05/03 07:44:32;;;;;;;9.00;7.00;;;8.50;99.90;;;;;;5130594;27;20163;-77
2023/05/03 07:46:57;;;;;;;9.40;7.63;;;8.50;99.90;;;;;;5130787;27;20566;-77
2023/05/03 07:49:23;;;;;;;11.80;8.07;;;8.60;99.90;;;;;;5130846;27;20178;-77
2023/05/03 07:51:50;;;;;;;10.17;7.57;;;8.80;99.90;;;;;;5121438;27;20182;-77
2023/05/03 07:54:16;;;;;;;8.37;7.20;;;9.20;99.90;;;;;;5116948;28;20172;-77
2023/05/03 07:56:41;;;;;;;7.57;6.77;;;9.20;99.90;;;;;;5116809;28;20194;-77
2023/05/03 07:59:07;;;;;;;9.20;7.57;;;9.20;99.90;;;;;;5116695;28;20198;-77
2023/05/03 08:01:33;;;;;;;10.63;7.67;;;9.20;99.90;;;;;;5115267;28;20171;-77
2023/05/03 08:03:58;;;;;;;14.10;8.20;;;9.30;99.90;;;;;;5116510;28;20163;-77
2023/05/03 08:06:24;;;;;;;11.13;8.07;;;9.50;99.90;;;;;;5116416;28;20178;-77
2023/05/03 08:08:50;;;;;;;10.70;8.03;;;9.40;99.90;;;;;;5116454;28;20171;-77
2023/05/03 08:11:16;;;;;;;9.20;7.80;;;9.60;99.90;;;;;;5116247;28;20573;-77
2023/05/03 08:13:41;;;;;;;10.30;7.33;;;9.90;99.90;;;;;;5116439;28;20167;-76
2023/05/03 08:16:07;;;;;;;9.53;6.57;;;10.10;99.90;;;;;;5116864;28;20629;-77
2023/05/03 08:18:33;;;;;;;7.80;7.00;;;10.20;99.90;;;;;;5117105;28;20521;-77
2023/05/03 08:20:58;;;;;;;7.00;6.30;;;10.40;99.90;;;;;;5116275;28;20201;-77
2023/05/03 08:23:24;;;;;;;8.17;6.77;;;11.40;99.90;;;;;;5116536;28;20175;-77
2023/05/03 08:25:50;;;;;;;6.80;5.80;;;11.40;99.90;;;;;;5116320;28;20688;-77
2023/05/03 08:28:16;;;;;;;8.47;6.37;;;12.90;99.90;;;;;;5116377;28;20192;-77
2023/05/03 08:30:41;;;;;;;7.03;6.00;;;13.70;99.90;;;;;;5114496;28;20210;-77
2023/05/03 08:33:08;;;;;;;6.23;5.63;;;12.80;99.90;;;;;;5115939;28;20261;-77
2023/05/03 08:35:34;;;;;;;6.47;5.83;;;12.00;99.90;;;;;;5115798;28;20170;-77
2023/05/03 08:38:00;;;;;;;7.30;6.43;;;11.70;99.90;;;;;;5115613;28;20278;-77
2023/05/03 08:40:27;;;;;;;6.23;5.57;;;11.80;99.90;;;;;;5115360;28;20282;-77
2023/05/03 08:42:55;;;;;;;6.83;6.13;;;12.20;99.90;;;;;;5115683;28;20217;-77
2023/05/03 08:45:22;;;;;;;5.87;5.27;;;13.70;99.90;;;;;;5115776;28;20164;-77
2023/05/03 08:47:53;;;;;;;7.53;5.57;;;15.00;99.90;;;;;;5115482;28;20665;-77
2023/05/03 08:50:19;;;;;;;5.83;5.33;;;15.60;99.90;;;;;;5114175;28;20269;-77
2023/05/03 08:52:45;;;;;;;4.63;4.23;;;16.00;99.90;;;;;;5114191;28;20176;-77
2023/05/03 08:55:11;;;;;;;5.13;4.63;;;15.10;99.90;;;;;;5115544;28;20171;-77
2023/05/03 08:57:37;;;;;;;5.27;4.77;;;15.00;99.90;;;;;;5115695;28;20230;-77
2023/05/03 09:00:11;;;;;;;7.70;5.73;;;14.60;99.90;;;;;;5114340;28;20195;-78
2023/05/03 09:02:40;;;;;;;5.60;5.10;;;15.20;99.90;;;;;;5113551;28;20271;-77
2023/05/03 09:05:15;;;;;;;5.37;4.87;;;14.90;99.90;;;;;;5115398;28;20177;-78
2023/05/03 09:08:09;;;;;;;5.90;5.40;;;15.20;99.90;;;;;;5115373;28;20195;-77
2023/05/03 09:10:42;;;;;;;6.07;5.03;;;15.90;99.90;;;;;;5115358;28;20170;-78
2023/05/03 09:13:09;;;;;;;5.30;4.80;;;16.60;99.90;;;;;;5114892;28;20172;-78
2023/05/03 09:15:35;;;;;;;5.63;5.13;;;16.80;99.90;;;;;;5114433;28;20181;-77
2023/05/03 09:18:11;;;;;;;5.10;4.67;;;16.60;99.90;;;;;;5115860;28;20196;-78
2023/05/03 09:20:39;;;;;;;5.73;5.23;;;16.50;99.90;;;;;;5114201;28;20213;-78
2023/05/03 09:23:08;;;;;;;5.67;5.17;;;16.20;99.90;;;;;;5115991;28;20177;-77
2023/05/03 09:25:41;;;;;;;5.40;4.90;;;16.10;99.90;;;;;;5116175;28;20170;-78
2023/05/03 09:28:07;;;;;;;5.10;4.70;;;16.30;99.90;;;;;;5115968;28;20207;-78
2023/05/03 09:30:33;;;;;;;5.97;5.37;;;16.40;99.90;;;;;;5114921;28;20186;-78
2023/05/03 09:32:59;;;;;;;5.37;4.87;;;16.50;99.90;;;;;;5115831;28;20179;-78
2023/05/03 09:35:24;;;;;;;5.50;5.00;;;16.90;99.90;;;;;;5114389;28;20184;-78
2023/05/03 09:37:50;;;;;;;5.10;4.70;;;17.40;99.90;;;;;;5116463;28;20619;-78
2023/05/03 09:40:17;;;;;;;4.80;4.40;;;17.30;99.90;;;;;;5114030;28;20505;-78
2023/05/03 09:43:07;;;;;;;4.63;4.13;;;16.50;99.90;;;;;;5116053;28;20164;-78
2023/05/03 09:45:34;;;;;;;5.37;4.87;;;16.10;99.90;;;;;;5116202;28;20195;-78
2023/05/03 09:48:05;;;;;;;4.47;4.07;;;16.10;99.90;;;;;;5115799;28;20239;-78
2023/05/03 09:50:32;;;;;;;5.43;4.40;;;16.10;99.90;;;;;;5115371;28;20175;-78
2023/05/03 09:53:05;;;;;;;4.70;4.30;;;16.50;99.90;;;;;;5116795;28;20179;-77
2023/05/03 09:55:36;;;;;;;4.20;3.90;;;16.70;99.90;;;;;;5114447;28;20180;-78
2023/05/03 09:58:06;;;;;;;4.83;4.30;;;16.50;99.90;;;;;;5115583;28;20183;-78
2023/05/03 10:00:40;;;;;;;4.90;4.20;;;15.80;99.90;;;;;;5114903;27;20198;-77
2023/05/03 10:03:09;;;;;;;4.43;4.03;;;15.90;99.90;;;;;;5115435;28;20182;-78
2023/05/03 10:05:46;;;;;;;4.80;4.40;;;15.80;99.90;;;;;;5113373;28;20171;-78
2023/05/03 10:08:25;;;;;;;5.30;4.63;;;15.50;99.90;;;;;;5115965;28;20197;-78
2023/05/03 10:10:53;;;;;;;5.53;4.33;;;15.80;99.90;;;;;;5118795;28;20487;-78
2023/05/03 10:13:21;;;;;;;5.00;4.57;;;15.40;99.90;;;;;;5115997;28;20170;-78
2023/05/03 10:15:56;;;;;;;4.87;4.47;;;15.20;99.90;;;;;;5113616;28;20251;-78
2023/05/03 10:18:26;;;;;;;5.97;4.07;;;15.60;99.90;;;;;;5114400;28;20198;-78
2023/05/03 10:21:00;;;;;;;4.73;4.33;;;16.30;99.90;;;;;;5114280;28;20560;-77
2023/05/03 10:23:26;;;;;;;5.30;4.80;;;16.40;99.90;;;;;;5114067;28;20281;-78
2023/05/03 10:26:17;;;;;;;4.90;4.40;;;16.30;99.90;;;;;;5115416;28;20166;-77
2023/05/03 10:28:44;;;;;;;5.30;4.80;;;16.30;99.90;;;;;;5113458;28;20213;-78
2023/05/03 10:31:47;;;;;;;4.93;4.53;;;16.70;99.90;;;;;;5113759;28;20262;-78
2023/05/03 10:34:21;;;;;;;5.17;4.70;;;17.10;99.90;;;;;;5114837;28;20206;-78
2023/05/03 10:36:52;;;;;;;4.83;4.43;;;16.80;99.90;;;;;;5113993;28;20276;-76
2023/05/03 10:39:19;;;;;;;5.20;4.70;;;16.10;99.90;;;;;;5114221;28;20256;-77
2023/05/03 10:41:55;;;;;;;5.67;5.17;;;15.40;99.90;;;;;;5114397;28;20171;-78
2023/05/03 10:44:25;;;;;;;5.40;4.83;;;15.70;99.90;;;;;;5114909;28;20216;-78
2023/05/03 10:46:53;;;;;;;5.10;4.60;;;15.70;99.90;;;;;;5115174;28;20185;-78
2023/05/03 10:49:23;;;;;;;5.27;4.73;;;16.00;99.90;;;;;;5113759;28;20179;-78
2023/05/03 10:51:49;;;;;;;5.23;4.73;;;16.40;99.90;;;;;;5113590;28;20166;-78
2023/05/03 10:54:16;;;;;;;5.50;5.00;;;16.30;99.90;;;;;;5113655;28;20700;-78
2023/05/03 10:56:51;;;;;;;5.07;4.67;;;16.70;99.90;;;;;;5114889;28;20186;-78
2023/05/03 10:59:17;;;;;;;5.23;4.73;;;16.90;99.90;;;;;;5113148;28;20199;-78
2023/05/03 11:01:50;;;;;;;5.00;4.33;;;17.20;99.90;;;;;;5113185;28;20181;-78
2023/05/03 11:04:34;;;;;;;4.83;4.33;;;17.70;99.90;;;;;;5113800;28;20623;-78
2023/05/03 11:07:00;;;;;;;4.43;4.03;;;18.30;99.90;;;;;;5114997;28;20191;-78
2023/05/03 11:09:31;;;;;;;4.83;4.10;;;18.70;99.90;;;;;;5115509;28;20171;-79
2023/05/03 11:11:57;;;;;;;4.90;4.37;;;18.50;99.90;;;;;;5114205;28;20176;-78
2023/05/03 11:14:23;;;;;;;5.00;4.50;;;18.60;99.90;;;;;;5115875;28;20195;-78
2023/05/03 11:16:50;;;;;;;6.90;6.30;;;18.60;99.90;;;;;;5115668;28;20257;-78
2023/05/03 11:19:16;;;;;;;9.33;6.73;;;17.50;99.90;;;;;;5113895;28;20175;-78
2023/05/03 11:21:42;;;;;;;9.33;8.30;;;16.40;99.90;;;;;;5115094;28;20175;-78
2023/05/03 11:24:08;;;;;;;10.47;7.57;;;15.60;99.90;;;;;;5114042;28;20186;-79
2023/05/03 11:26:37;;;;;;;8.37;7.60;;;15.60;99.90;;;;;;5115592;28;20597;-78
2023/05/03 11:29:04;;;;;;;8.97;7.80;;;16.00;99.90;;;;;;5118132;28;20171;-78
2023/05/03 11:31:30;;;;;;;8.70;7.90;;;16.70;99.90;;;;;;5117660;28;20170;-78
2023/05/03 11:33:56;;;;;;;8.60;7.40;;;17.10;99.90;;;;;;5118092;28;20167;-78
2023/05/03 11:36:22;;;;;;;9.57;8.57;;;17.00;99.90;;;;;;5119767;28;20511;-78
2023/05/03 11:38:47;;;;;;;8.97;7.97;;;17.70;99.90;;;;;;5121476;28;20258;-78
2023/05/03 11:41:15;;;;;;;8.57;7.67;;;17.50;99.90;;;;;;5119495;28;20196;-78
2023/05/03 11:43:46;;;;;;;9.43;8.63;;;16.80;99.90;;;;;;5117283;28;20218;-77
2023/05/03 11:46:26;;;;;;;8.87;8.03;;;16.90;99.90;;;;;;5117440;28;20156;-77
2023/05/03 11:48:52;;;;;;;9.07;8.27;;;17.80;99.90;;;;;;5116318;28;20171;-77
2023/05/03 11:51:24;;;;;;;9.00;8.17;;;17.20;99.90;;;;;;5117571;28;20176;-78
2023/05/03 11:53:50;;;;;;;9.57;8.67;;;17.30;99.90;;;;;;5117537;27;20255;-78
2023/05/03 11:56:21;;;;;;;9.30;8.27;;;16.80;99.90;;;;;;5117390;28;20251;-77
2023/05/03 11:58:57;;;;;;;9.63;8.67;;;16.80;99.90;;;;;;5116650;28;20148;-77
2023/05/03 12:01:27;;;;;;;9.67;8.73;;;16.80;99.90;;;;;;5116333;28;20672;-77
2023/05/03 12:03:59;;;;;;;11.33;9.70;;;18.00;99.90;;;;;;5117370;27;20172;-77
2023/05/03 12:06:27;;;;;;;10.83;9.73;;;18.70;99.90;;;;;;5115224;28;20168;-78
2023/05/03 12:08:53;;;;;;;10.27;9.27;;;17.90;99.90;;;;;;5116834;28;20241;-78
2023/05/03 12:11:20;;;;;;;10.60;9.60;;;17.10;99.90;;;;;;5116367;28;20179;-78
2023/05/03 12:13:58;;;;;;;10.57;9.57;;;17.30;99.90;;;;;;5116547;28;20167;-78
2023/05/03 12:16:24;;;;;;;11.13;9.77;;;18.10;99.90;;;;;;5116957;28;20164;-78
2023/05/03 12:19:02;;;;;;;10.33;9.33;;;18.60;99.90;;;;;;5116719;28;20179;-78
2023/05/03 12:21:47;;;;;;;10.40;9.40;;;18.50;99.90;;;;;;5116941;28;20165;-77
2023/05/03 12:24:17;;;;;;;9.63;8.73;;;18.80;99.90;;;;;;5116813;27;20171;-78
2023/05/03 12:26:44;;;;;;;10.83;8.47;;;18.80;99.90;;;;;;5115416;28;20559;-78
2023/05/03 12:29:11;;;;;;;12.87;8.97;;;18.80;99.90;;;;;;5114754;28;20660;-77
2023/05/03 12:31:37;;;;;;;10.90;8.80;;;19.30;99.90;;;;;;5116200;28;20163;-77
2023/05/03 12:34:03;;;;;;;11.83;7.63;;;19.80;99.90;;;;;;5116195;28;20653;-77
2023/05/03 12:36:32;;;;;;;12.00;8.43;;;19.60;99.90;;;;;;5114709;28;20179;-79
2023/05/03 12:38:59;;;;;;;11.43;8.00;;;18.60;99.90;;;;;;5115635;28;20206;-77
2023/05/03 12:41:27;;;;;;;9.27;8.37;;;18.70;99.90;;;;;;5115691;28;20179;-77
2023/05/03 12:43:53;;;;;;;13.47;8.67;;;19.10;99.90;;;;;;5115959;27;20379;-77
2023/05/03 12:46:19;;;;;;;12.07;8.83;;;19.00;99.90;;;;;;5115956;28;20688;-77
2023/05/03 12:48:45;;;;;;;9.80;7.93;;;19.50;99.90;;;;;;5116065;28;20209;-77
2023/05/03 12:51:11;;;;;;;9.33;8.00;;;20.10;99.90;;;;;;5115453;28;20263;-77
2023/05/03 12:53:36;;;;;;;12.90;7.47;;;20.90;99.90;;;;;;5115566;28;20171;-77
2023/05/03 12:56:02;;;;;;;13.23;8.10;;;21.10;99.90;;;;;;5115389;28;20574;-77
2023/05/03 12:58:28;;;;;;;9.33;8.40;;;21.50;99.90;;;;;;5115512;28;20270;-77
2023/05/03 13:00:53;;;;;;;8.50;7.60;;;21.40;99.90;;;;;;5115311;28;20575;-77
2023/05/03 13:03:19;;;;;;;7.87;7.13;;;19.50;99.90;;;;;;5113716;28;20190;-77
2023/05/03 13:05:45;;;;;;;8.30;7.43;;;19.30;99.90;;;;;;5115369;28;20172;-76
2023/05/03 13:08:11;;;;;;;8.87;7.97;;;19.80;99.90;;;;;;5115241;27;20187;-77
2023/05/03 13:10:39;;;;;;;9.97;8.63;;;20.00;99.90;;;;;;5115330;28;20537;-77
2023/05/03 13:13:05;;;;;;;11.93;8.73;;;19.50;99.90;;;;;;5115275;27;20175;-77
2023/05/03 13:15:33;;;;;;;7.73;6.93;;;19.40;99.90;;;;;;5114910;28;20199;-76
2023/05/03 13:18:03;;;;;;;8.13;7.33;;;20.10;99.90;;;;;;5115221;28;20661;-76
2023/05/03 13:20:30;;;;;;;7.60;6.80;;;20.20;99.90;;;;;;5114688;28;20196;-76
2023/05/03 13:22:57;;;;;;;13.80;8.07;;;21.00;99.90;;;;;;5114769;28;20297;-77
2023/05/03 13:25:22;;;;;;;7.60;6.90;;;20.20;99.90;;;;;;5113468;28;20171;-77
2023/05/03 13:27:52;;;;;;;7.13;6.43;;;20.80;99.90;;;;;;5114696;28;20190;-77
2023/05/03 13:30:20;;;;;;;8.43;7.50;;;20.10;99.90;;;;;;5114572;28;20168;-77
2023/05/03 13:32:46;;;;;;;8.27;6.90;;;19.70;99.90;;;;;;5114841;28;20171;-77
2023/05/03 13:35:12;;;;;;;8.50;7.43;;;19.60;99.90;;;;;;5113223;28;20179;-77
2023/05/03 13:37:38;;;;;;;6.97;6.27;;;20.20;99.90;;;;;;5114492;28;20187;-78
2023/05/03 13:40:04;;;;;;;7.53;6.63;;;20.60;99.90;;;;;;5114405;28;20199;-77
2023/05/03 13:42:30;;;;;;;8.00;6.70;;;20.30;99.90;;;;;;5114540;28;20172;-77
2023/05/03 13:44:55;;;;;;;8.83;7.37;;;20.00;99.90;;;;;;5114596;28;20255;-78
2023/05/03 13:47:21;;;;;;;6.93;6.23;;;20.70;99.90;;;;;;5114570;28;20191;-77
2023/05/03 13:49:47;;;;;;;7.23;6.53;;;21.10;99.90;;;;;;5113812;27;20579;-77
2023/05/03 13:52:13;;;;;;;7.10;6.33;;;21.10;99.90;;;;;;5114239;28;20172;-77
2023/05/03 13:54:41;;;;;;;8.03;6.57;;;20.70;99.90;;;;;;5112931;28;20263;-77
2023/05/03 13:57:06;;;;;;;8.97;6.60;;;19.90;99.90;;;;;;5112834;28;20196;-77
2023/05/03 13:59:32;;;;;;;6.87;6.17;;;19.30;99.90;;;;;;5113925;28;20191;-77
2023/05/03 14:01:59;;;;;;;6.93;6.23;;;18.70;99.90;;;;;;5114167;28;20168;-77
2023/05/03 14:04:24;;;;;;;10.53;6.97;;;18.20;99.90;;;;;;5114349;28;20163;-77
2023/05/03 14:06:50;;;;;;;8.03;7.23;;;18.70;99.90;;;;;;5114517;28;20668;-77
2023/05/03 14:09:20;;;;;;;8.60;7.03;;;18.20;99.90;;;;;;5113000;28;20268;-77
2023/05/03 14:11:45;;;;;;;9.43;7.57;;;17.50;99.90;;;;;;5112640;28;20171;-77
2023/05/03 14:14:11;;;;;;;9.83;7.80;;;17.60;99.90;;;;;;5114107;28;20170;-77
2023/05/03 14:16:37;;;;;;;8.13;7.27;;;18.50;99.90;;;;;;5114125;28;20194;-77
2023/05/03 14:19:02;;;;;;;8.03;7.20;;;19.50;99.90;;;;;;5114080;28;20250;-77
2023/05/03 14:21:31;;;;;;;7.50;6.33;;;20.20;99.90;;;;;;5113646;28;20259;-77
2023/05/03 14:23:57;;;;;;;6.87;6.07;;;19.20;99.90;;;;;;5112547;28;20537;-77
2023/05/03 14:26:23;;;;;;;7.80;7.00;;;16.90;99.90;;;;;;5113805;28;20605;-77
2023/05/03 14:28:48;;;;;;;9.73;7.50;;;16.90;99.90;;;;;;5112685;28;20202;-77
2023/05/03 14:31:15;;;;;;;7.60;6.80;;;16.60;99.90;;;;;;5113769;28;20195;-77
2023/05/03 14:33:41;;;;;;;8.57;7.20;;;18.00;99.90;;;;;;5114065;28;20165;-77
2023/05/03 14:36:07;;;;;;;7.77;6.63;;;18.00;99.90;;;;;;5113758;28;20181;-77
2023/05/03 14:38:33;;;;;;;8.27;6.33;;;18.10;99.90;;;;;;5113597;28;20283;-77
2023/05/03 14:40:59;;;;;;;7.63;6.80;;;19.50;99.90;;;;;;5113502;28;20220;-77
2023/05/03 14:43:25;;;;;;;7.30;6.60;;;20.80;99.90;;;;;;5112461;28;20186;-78
2023/05/03 14:45:50;;;;;;;7.13;6.43;;;20.70;99.90;;;;;;5113941;28;20168;-77
2023/05/03 14:48:16;;;;;;;7.90;6.53;;;19.30;99.90;;;;;;5113850;28;20262;-77
2023/05/03 14:50:49;;;;;;;7.37;6.63;;;18.30;99.90;;;;;;5114513;28;20521;-78
2023/05/03 14:53:15;;;;;;;4.97;4.47;;;18.70;99.90;;;;;;5114426;28;20259;-77
2023/05/03 14:55:41;;;;;;;6.50;4.87;;;19.20;99.90;;;;;;5115455;28;20167;-78
2023/05/03 14:58:08;;;;;;;5.23;4.63;;;19.70;99.90;;;;;;5113854;28;20198;-77
2023/05/03 15:00:38;;;;;;;6.73;5.30;;;20.50;99.90;;;;;;5112528;28;20191;-78
2023/05/03 15:03:04;;;;;;;5.63;4.80;;;21.20;99.00;;;;;;5118034;28;20164;-78
2023/05/03 15:05:29;;;;;;;6.87;5.33;;;21.30;97.80;;;;;;5116867;28;20694;-78
2023/05/03 15:07:55;;;;;;;6.03;5.17;;;21.30;96.80;;;;;;5118642;28;20241;-78
2023/05/03 15:10:21;;;;;;;7.50;5.20;;;20.00;96.80;;;;;;5118266;28;20168;-78
2023/05/03 15:12:47;;;;;;;7.33;5.40;;;18.50;98.50;;;;;;5118729;28;20182;-77
2023/05/03 15:15:14;;;;;;;6.27;5.10;;;17.60;99.90;;;;;;5117392;28;20171;-77
2023/05/03 15:17:40;;;;;;;5.40;4.90;;;17.10;99.90;;;;;;5117352;28;20194;-77
2023/05/03 15:20:06;;;;;;;5.97;5.23;;;17.70;99.90;;;;;;5117192;28;20214;-77
2023/05/03 15:22:32;;;;;;;7.77;4.30;;;18.70;99.90;;;;;;5117789;28;20168;-77
2023/05/03 15:24:58;;;;;;;8.10;4.73;;;19.40;98.80;;;;;;5118035;27;20223;-77
2023/05/03 15:27:23;;;;;;;5.00;4.47;;;20.30;98.90;;;;;;5117947;28;20257;-77
2023/05/03 15:29:49;;;;;;;7.83;5.40;;;20.90;96.50;;;;;;5116131;28;20179;-78
2023/05/03 15:32:15;;;;;;;5.30;4.80;;;21.20;95.40;;;;;;5117495;28;20167;-78
2023/05/03 15:34:41;;;;;;;5.93;5.30;;;21.40;94.60;;;;;;5117626;28;20174;-77
2023/05/03 15:37:10;;;;;;;5.30;4.80;;;21.10;95.40;;;;;;5116834;28;20187;-77
2023/05/03 15:39:36;;;;;;;10.03;4.70;;;21.20;95.60;;;;;;5119651;28;20248;-76
2023/05/03 15:42:02;;;;;;;6.53;4.87;;;20.60;94.60;;;;;;5117492;28;20247;-77
2023/05/03 15:44:28;;;;;;;5.33;4.73;;;20.30;96.60;;;;;;5118125;28;20198;-77
2023/05/03 15:46:54;;;;;;;6.03;4.53;;;20.40;96.00;;;;;;5117618;28;20192;-78
2023/05/03 15:49:21;;;;;;;5.63;5.00;;;20.40;93.50;;;;;;5118205;28;20700;-78
2023/05/03 15:51:46;;;;;;;6.10;4.70;;;20.20;94.80;;;;;;5120488;28;20528;-79
2023/05/03 15:54:12;;;;;;;5.20;4.60;;;19.50;94.70;;;;;;5118535;28;20180;-78
2023/05/03 15:56:38;;;;;;;6.53;5.13;;;19.00;95.40;;;;;;5117193;28;20240;-78
2023/05/03 15:59:04;;;;;;;5.83;4.93;;;18.90;95.60;;;;;;5115676;28;20220;-78
2023/05/03 16:01:30;;;;;;;4.90;4.40;;;18.90;95.10;;;;;;5117876;28;20203;-79
2023/05/03 16:03:56;;;;;;;5.00;4.50;;;18.90;95.70;;;;;;5117432;28;20588;-77
2023/05/03 16:06:22;;;;;;;6.00;5.40;;;19.30;95.00;;;;;;5116334;28;20275;-77
2023/05/03 16:08:47;;;;;;;7.33;5.43;;;19.30;95.30;;;;;;5115588;28;20175;-77
2023/05/03 16:11:13;;;;;;;5.83;5.23;;;18.90;95.50;;;;;;5116710;28;20176;-77
2023/05/03 16:13:39;;;;;;;7.63;5.03;;;18.10;96.90;;;;;;5114929;28;20187;-77
2023/05/03 16:16:05;;;;;;;6.33;5.07;;;17.30;98.50;;;;;;5118171;28;20178;-78
2023/05/03 16:18:31;;;;;;;5.93;5.33;;;16.60;99.00;;;;;;5119583;28;20604;-78
2023/05/03 16:20:57;;;;;;;6.50;5.30;;;16.10;99.90;;;;;;5117202;28;20206;-77
2023/05/03 16:23:23;;;;;;;7.00;5.20;;;15.80;99.90;;;;;;5116682;28;20197;-77
2023/05/03 16:25:48;;;;;;;5.50;5.00;;;15.50;99.90;;;;;;5116351;28;20257;-77
2023/05/03 16:28:15;;;;;;;8.03;5.50;;;15.50;99.90;;;;;;5117331;27;20269;-77
2023/05/03 16:30:41;;;;;;;6.43;5.83;;;15.40;99.90;;;;;;5114718;28;20177;-78
2023/05/03 16:33:07;;;;;;;6.63;6.00;;;15.30;99.90;;;;;;5116091;28;20181;-77
2023/05/03 16:35:32;;;;;;;9.17;5.97;;;15.30;99.90;;;;;;5115955;28;20249;-78
2023/05/03 16:37:58;;;;;;;6.70;5.93;;;15.20;99.90;;;;;;5115969;28;20661;-77
2023/05/03 16:40:24;;;;;;;7.33;5.70;;;15.10;99.90;;;;;;5114012;28;20656;-77
2023/05/03 16:42:50;;;;;;;6.77;6.07;;;15.10;99.90;;;;;;5115844;28;20168;-77
2023/05/03 16:45:18;;;;;;;6.37;5.77;;;15.00;99.90;;;;;;5116492;28;20200;-77
2023/05/03 16:47:46;;;;;;;7.50;6.70;;;14.90;99.90;;;;;;5115354;28;20192;-78
2023/05/03 16:50:12;;;;;;;8.23;6.33;;;14.80;99.90;;;;;;5118537;28;20178;-78
2023/05/03 16:52:42;;;;;;;7.10;6.23;;;14.80;99.90;;;;;;5122869;28;20179;-78
2023/05/03 16:55:09;;;;;;;7.83;6.40;;;14.70;99.90;;;;;;5123253;28;20270;-78
2023/05/03 16:57:36;;;;;;;6.67;5.50;;;14.70;99.90;;;;;;5119634;28;20712;-78
2023/05/03 17:00:07;;;;;;;9.20;6.47;;;14.70;99.90;;;;;;5118138;28;20206;-80
2023/05/03 17:02:34;;;;;;;8.13;6.00;;;14.60;99.90;;;;;;5117121;28;20168;-78
2023/05/03 17:05:00;;;;;;;7.20;6.50;;;14.60;99.90;;;;;;5117047;28;20171;-78
2023/05/03 17:07:26;;;;;;;9.10;6.50;;;14.50;99.90;;;;;;5116045;28;20699;-78
